All Spectrum Aviation - Van Nuys Airport - KVNY

HOME

Condor Squadron KVNY Webcam

Visit our Electronics Store

Condor Squadron Webcam - Van Nuys Airport - KVNY
Picture taken: Sat, 18 Jan 2020 16:07:20 -0800
YouTube Channel!    Latest Timelapse Movie    Full Size Image    Regular Size Image    

2020/01/18 23:51 KVNY 182351Z 35015KT 10SM CLR 18/M05 A3013 RMK AO2 SLP199 T01831050 10194 20161 56009

HOME

Condor Squadron KVNY Webcam

Visit our Electronics Store